Montadas, Brazil
Current Conditions -  °F | °C
As of 6:00 AM on Friday 24 Oct 2014 (Local Time) from SBKG Reporting Station
Broken Clouds Broken Clouds  
Wind Chill: 68°   Ceiling: 1600
Heat Index: 68°   Visibility: 6mi
Dew Point: 68°   Wind: 6mph
Humidity: 100%   Direction: 110°ESE
Pressure: 30"   Gusts: NA
Location:  7.14°S, 35.91°W
Report Text: SBKG 240900Z 11005KT 9999 SCT009 BKN016 BKN090 20/20 Q1016
Loading
Personal Weather Stations






























Interactive Weather Map
Tropical Storm Tracking
New forecast layout! Learn more

10-Day Weather Forecast

Advertisements
Track Severe Weather on mobile